createdAt,value
2023-02-24T00:01:42.551Z,13.40
2023-02-24T00:07:13.958Z,15.00
2023-02-24T00:09:44.657Z,14.00
2023-02-24T00:12:14.338Z,14.70
2023-02-24T00:14:44.671Z,16.00
2023-02-24T00:17:16.331Z,14.10
2023-02-24T00:19:44.593Z,14.00
2023-02-24T00:22:12.972Z,15.80
2023-02-24T00:24:42.340Z,15.40
2023-02-24T00:27:12.653Z,15.20
2023-02-24T00:29:42.359Z,15.70
2023-02-24T00:32:14.917Z,16.50
2023-02-24T00:34:44.719Z,14.80
2023-02-24T00:37:15.540Z,16.70
2023-02-24T00:39:48.079Z,14.10
2023-02-24T00:42:16.368Z,15.40
2023-02-24T00:44:45.495Z,13.10
2023-02-24T00:47:16.913Z,15.40
2023-02-24T00:49:46.060Z,13.30
2023-02-24T00:52:16.472Z,15.10
2023-02-24T00:57:14.634Z,9.60
2023-02-24T00:59:47.656Z,13.50
2023-02-24T01:02:16.680Z,14.20
2023-02-24T01:04:46.132Z,14.50
2023-02-24T01:07:15.137Z,15.60
2023-02-24T01:09:44.365Z,13.00
2023-02-24T01:12:38.609Z,13.80
2023-02-24T01:15:09.261Z,14.60
2023-02-24T01:17:38.025Z,12.00
2023-02-24T01:20:18.371Z,14.50
2023-02-24T01:22:50.868Z,14.40
2023-02-24T01:25:20.635Z,15.70
2023-02-24T01:27:49.485Z,13.50
2023-02-24T01:30:18.661Z,9.00
2023-02-24T01:32:47.590Z,13.70
2023-02-24T01:35:16.220Z,12.30
2023-02-24T01:37:45.710Z,14.10
2023-02-24T01:40:18.755Z,11.10
2023-02-24T01:42:49.558Z,13.50
2023-02-24T01:45:23.009Z,12.00
2023-02-24T01:47:53.162Z,13.10
2023-02-24T01:50:22.102Z,14.10
2023-02-24T01:52:52.056Z,12.70
2023-02-24T01:55:23.383Z,12.50
2023-02-24T01:57:52.123Z,13.90
2023-02-24T02:00:32.964Z,12.50
2023-02-24T02:03:08.131Z,12.30
2023-02-24T02:05:39.146Z,10.00
2023-02-24T02:08:09.200Z,14.10
2023-02-24T02:10:40.129Z,14.00
2023-02-24T02:13:13.309Z,12.40
2023-02-24T02:15:49.199Z,14.20
2023-02-24T02:18:33.418Z,13.30
2023-02-24T02:21:19.067Z,14.70
2023-02-24T02:23:55.080Z,13.30
2023-02-24T02:26:44.980Z,13.70
2023-02-24T02:29:51.307Z,15.50
2023-02-24T02:32:32.714Z,13.00
2023-02-24T02:35:13.261Z,14.00
2023-02-24T02:37:46.546Z,17.00
2023-02-24T02:40:21.688Z,13.90
2023-02-24T02:43:08.580Z,14.20
2023-02-24T02:45:47.720Z,14.50
2023-02-24T02:48:20.277Z,15.50
2023-02-24T02:50:52.882Z,14.80
2023-02-24T02:53:27.098Z,17.20
2023-02-24T02:56:01.358Z,11.80
2023-02-24T02:58:32.759Z,15.30
2023-02-24T03:01:04.596Z,16.50
2023-02-24T03:03:37.133Z,15.00
2023-02-24T03:06:24.824Z,16.20
2023-02-24T03:09:00.233Z,12.20
2023-02-24T03:11:29.155Z,16.10
2023-02-24T03:14:02.971Z,16.30
2023-02-24T03:19:04.146Z,14.10
2023-02-24T03:21:36.705Z,15.10
2023-02-24T03:24:06.461Z,17.40
2023-02-24T03:26:50.713Z,15.10
2023-02-24T03:29:24.257Z,11.10
2023-02-24T03:32:12.495Z,12.30
2023-02-24T03:34:40.677Z,15.70
2023-02-24T03:37:11.171Z,15.60
2023-02-24T03:39:40.634Z,13.40
2023-02-24T03:42:19.034Z,11.90
2023-02-24T03:44:48.325Z,13.50
2023-02-24T03:47:17.559Z,17.10
2023-02-24T03:49:47.247Z,17.40
2023-02-24T03:52:32.577Z,15.30
2023-02-24T03:55:23.289Z,16.30
2023-02-24T03:57:55.366Z,15.00
2023-02-24T04:00:46.611Z,14.10
2023-02-24T04:03:28.852Z,15.80
2023-02-24T04:06:26.484Z,12.10
2023-02-24T04:09:21.373Z,16.30
2023-02-24T04:12:01.206Z,10.80
2023-02-24T04:14:33.426Z,12.90
2023-02-24T04:17:08.103Z,14.90
2023-02-24T04:19:38.614Z,15.10
2023-02-24T04:22:07.788Z,15.50
2023-02-24T04:24:38.382Z,10.50
2023-02-24T04:27:06.966Z,12.10
2023-02-24T04:32:10.317Z,15.70
2023-02-24T04:34:40.567Z,15.00
2023-02-24T04:37:08.819Z,14.50
2023-02-24T04:39:39.779Z,10.30
2023-02-24T04:42:14.733Z,13.30
2023-02-24T04:44:43.043Z,10.60
2023-02-24T04:47:11.749Z,16.20
2023-02-24T04:49:41.498Z,14.60
2023-02-24T04:52:10.079Z,14.40
2023-02-24T04:54:38.491Z,15.70
2023-02-24T04:57:08.113Z,10.60
2023-02-24T04:59:38.194Z,15.70
2023-02-24T05:02:06.578Z,14.90
2023-02-24T05:04:38.931Z,12.80
2023-02-24T05:07:07.831Z,16.10
2023-02-24T05:09:35.965Z,10.80
2023-02-24T05:12:05.714Z,14.50
2023-02-24T05:14:33.672Z,12.20
2023-02-24T05:17:02.348Z,6.70
2023-02-24T05:19:49.286Z,12.10
2023-02-24T05:22:17.994Z,12.90
2023-02-24T05:24:48.190Z,10.50
2023-02-24T05:27:17.589Z,14.50
2023-02-24T05:29:49.069Z,12.40
2023-02-24T05:32:17.164Z,14.90
2023-02-24T05:34:45.526Z,13.20
2023-02-24T05:37:16.814Z,13.60
2023-02-24T05:39:46.303Z,14.10
2023-02-24T05:42:14.552Z,11.20
2023-02-24T05:44:42.613Z,13.80
2023-02-24T05:47:11.918Z,14.40
2023-02-24T05:49:43.879Z,11.70
2023-02-24T05:52:14.186Z,13.30
2023-02-24T05:54:45.151Z,14.20
2023-02-24T05:57:17.117Z,12.50
2023-02-24T05:59:45.383Z,15.00
2023-02-24T06:02:16.955Z,14.80
2023-02-24T06:04:50.999Z,12.50
2023-02-24T06:07:27.548Z,14.80
2023-02-24T06:09:58.044Z,15.00
2023-02-24T06:12:31.849Z,10.90
2023-02-24T06:15:07.661Z,14.30
2023-02-24T06:17:39.664Z,13.80
2023-02-24T06:20:16.129Z,14.70
2023-02-24T06:22:44.596Z,10.80
2023-02-24T06:25:15.881Z,12.80
2023-02-24T06:27:44.235Z,14.30
2023-02-24T06:30:15.330Z,12.00
2023-02-24T06:32:45.030Z,8.20
2023-02-24T06:35:14.928Z,9.50
2023-02-24T06:37:43.877Z,13.00
2023-02-24T06:40:16.116Z,14.30
2023-02-24T06:42:48.228Z,9.80
2023-02-24T06:45:16.488Z,14.30
2023-02-24T06:47:48.976Z,10.60
2023-02-24T06:50:21.937Z,15.20
2023-02-24T06:52:53.313Z,12.80
2023-02-24T06:55:31.001Z,15.20
2023-02-24T06:58:04.356Z,9.40
2023-02-24T07:00:40.035Z,12.50
2023-02-24T07:03:16.247Z,15.70
2023-02-24T07:05:54.516Z,9.90
2023-02-24T07:08:27.446Z,11.80
2023-02-24T07:10:59.977Z,12.60
2023-02-24T07:13:30.021Z,13.80
2023-02-24T07:16:07.229Z,12.70
2023-02-24T07:18:37.204Z,12.90
2023-02-24T07:21:06.334Z,9.90
2023-02-24T07:23:35.020Z,11.70
2023-02-24T07:26:10.308Z,10.90
2023-02-24T07:28:40.338Z,9.60
2023-02-24T07:31:14.022Z,13.30
2023-02-24T07:33:45.195Z,11.60
2023-02-24T07:36:23.354Z,9.10
2023-02-24T07:38:53.214Z,10.70
2023-02-24T07:41:23.037Z,9.10
2023-02-24T07:43:54.551Z,13.90
2023-02-24T07:46:24.737Z,14.90
2023-02-24T07:48:53.783Z,13.60
2023-02-24T07:51:23.742Z,9.50
2023-02-24T07:53:56.808Z,10.40
2023-02-24T07:56:28.557Z,13.60
2023-02-24T07:58:59.993Z,14.40
2023-02-24T08:01:39.058Z,13.70
2023-02-24T08:04:08.213Z,14.30
2023-02-24T08:06:38.238Z,15.70
2023-02-24T08:09:18.654Z,10.40
2023-02-24T08:11:49.249Z,15.30
2023-02-24T08:14:17.722Z,8.40
2023-02-24T08:16:48.222Z,15.80
2023-02-24T08:19:21.190Z,12.80
2023-02-24T08:21:52.182Z,13.60
2023-02-24T08:27:04.502Z,11.20
2023-02-24T08:29:40.435Z,14.00
2023-02-24T08:32:10.329Z,14.10
2023-02-24T08:34:38.866Z,15.80
2023-02-24T08:37:06.993Z,16.80
2023-02-24T08:39:36.562Z,12.80
2023-02-24T08:42:07.666Z,14.40
2023-02-24T08:44:37.245Z,11.20
2023-02-24T08:47:07.617Z,8.80
2023-02-24T08:49:40.691Z,13.50
2023-02-24T08:52:08.872Z,13.70
2023-02-24T08:54:48.205Z,15.00
2023-02-24T08:57:18.391Z,14.50
2023-02-24T08:59:57.850Z,13.10
2023-02-24T09:02:29.603Z,12.50
2023-02-24T09:07:35.645Z,9.20
2023-02-24T09:10:18.263Z,13.10
2023-02-24T09:12:49.436Z,14.70
2023-02-24T09:15:18.025Z,14.60
2023-02-24T09:17:47.448Z,14.20
2023-02-24T09:20:27.145Z,13.90
2023-02-24T09:23:03.697Z,15.90
2023-02-24T09:25:49.801Z,12.40
2023-02-24T09:28:24.970Z,14.10
2023-02-24T09:30:55.692Z,12.20
2023-02-24T09:33:39.853Z,10.40
2023-02-24T09:36:20.231Z,13.20
2023-02-24T09:39:02.194Z,15.30
2023-02-24T09:42:18.124Z,14.10
2023-02-24T09:44:52.947Z,11.10
2023-02-24T09:47:52.174Z,13.50
2023-02-24T09:50:40.701Z,9.20
2023-02-24T09:53:17.689Z,15.60
2023-02-24T09:56:03.861Z,14.50
2023-02-24T09:58:53.320Z,14.30
2023-02-24T10:01:43.320Z,11.30
2023-02-24T10:04:20.843Z,12.80
2023-02-24T10:06:58.292Z,14.50
2023-02-24T10:09:35.796Z,12.80
2023-02-24T10:12:19.031Z,11.70
2023-02-24T10:15:49.286Z,15.20
2023-02-24T10:18:29.256Z,13.40
2023-02-24T10:21:04.402Z,14.00
2023-02-24T10:23:36.583Z,14.40
2023-02-24T10:26:07.678Z,15.40
2023-02-24T10:28:52.003Z,15.80
2023-02-24T10:31:30.797Z,12.40
2023-02-24T10:34:08.271Z,15.20
2023-02-24T10:36:39.771Z,15.10
2023-02-24T10:39:20.592Z,13.70
2023-02-24T10:41:57.637Z,15.20
2023-02-24T10:44:27.360Z,11.90
2023-02-24T10:47:31.181Z,10.70
2023-02-24T10:50:00.880Z,12.00
2023-02-24T10:52:58.340Z,13.10
2023-02-24T10:55:29.127Z,12.50
2023-02-24T10:58:16.047Z,13.20
2023-02-24T11:01:06.714Z,17.20
2023-02-24T11:03:46.354Z,11.90
2023-02-24T11:06:40.825Z,11.90
2023-02-24T11:09:35.036Z,15.70
2023-02-24T11:12:35.451Z,10.30
2023-02-24T11:15:25.431Z,16.20
2023-02-24T11:17:58.758Z,13.80
2023-02-24T11:20:46.126Z,11.40
2023-02-24T11:23:24.738Z,11.10
2023-02-24T11:26:00.916Z,10.50
2023-02-24T11:28:57.652Z,14.10
2023-02-24T11:32:11.644Z,12.00
2023-02-24T11:34:49.650Z,10.10
2023-02-24T11:37:31.143Z,14.50
2023-02-24T11:40:16.033Z,11.50
2023-02-24T11:42:57.229Z,14.40
2023-02-24T11:45:29.501Z,11.40
2023-02-24T11:48:01.241Z,15.70
2023-02-24T11:50:39.885Z,15.60
2023-02-24T11:53:16.430Z,13.60
2023-02-24T11:55:47.049Z,10.80
2023-02-24T11:58:23.033Z,10.60
2023-02-24T12:01:16.452Z,9.70
2023-02-24T12:03:51.450Z,13.80
2023-02-24T12:06:39.731Z,12.30
2023-02-24T12:09:14.298Z,14.40
2023-02-24T12:11:57.122Z,13.00
2023-02-24T12:14:32.794Z,11.30
2023-02-24T12:17:21.751Z,13.90
2023-02-24T12:20:07.123Z,13.60
2023-02-24T12:24:31.492Z,12.20
2023-02-24T12:27:18.613Z,11.90
2023-02-24T12:29:57.717Z,10.80
2023-02-24T12:32:54.333Z,15.10
2023-02-24T12:35:42.337Z,17.30
2023-02-24T12:38:44.287Z,15.20
2023-02-24T12:41:32.322Z,13.90
2023-02-24T12:44:35.608Z,12.20
2023-02-24T12:47:08.703Z,15.70
2023-02-24T12:50:06.975Z,15.10
2023-02-24T12:52:41.703Z,13.80
2023-02-24T12:55:15.546Z,12.20
2023-02-24T12:58:13.541Z,16.80
2023-02-24T13:01:13.547Z,13.50
2023-02-24T13:03:59.001Z,16.00
2023-02-24T13:06:46.242Z,12.40
2023-02-24T13:09:36.627Z,17.10
2023-02-24T13:12:14.436Z,14.50
2023-02-24T13:14:42.626Z,16.30
2023-02-24T13:17:10.682Z,12.40
2023-02-24T13:19:40.204Z,16.50
2023-02-24T13:22:11.707Z,17.20
2023-02-24T13:24:44.704Z,11.20
2023-02-24T13:27:12.764Z,16.80
2023-02-24T13:29:48.807Z,14.10
2023-02-24T13:32:35.211Z,12.10
2023-02-24T13:35:26.783Z,15.90
2023-02-24T13:37:55.237Z,15.10
2023-02-24T13:40:24.418Z,11.80
2023-02-24T13:43:01.925Z,15.30
2023-02-24T13:45:37.422Z,13.80
2023-02-24T13:48:22.504Z,13.90
2023-02-24T13:51:02.435Z,16.30
2023-02-24T13:53:57.753Z,9.90
2023-02-24T13:56:34.214Z,13.80
2023-02-24T13:59:14.608Z,13.50
2023-02-24T14:02:19.866Z,12.90
2023-02-24T14:04:52.454Z,11.40
2023-02-24T14:07:40.872Z,12.00
2023-02-24T14:10:19.236Z,20.60
2023-02-24T14:12:48.672Z,14.80
2023-02-24T14:15:24.479Z,17.10
2023-02-24T14:18:01.001Z,10.20
2023-02-24T14:20:38.036Z,12.80
2023-02-24T14:23:22.308Z,19.00
2023-02-24T14:25:58.720Z,22.30
2023-02-24T14:28:36.393Z,13.70
2023-02-24T14:31:15.444Z,10.10
2023-02-24T14:33:44.901Z,15.70
2023-02-24T14:36:18.841Z,18.90
2023-02-24T14:39:02.542Z,20.30
2023-02-24T14:41:31.086Z,12.10
2023-02-24T14:44:05.637Z,14.20
2023-02-24T14:46:34.830Z,16.40
2023-02-24T14:49:05.115Z,21.30
2023-02-24T14:51:35.660Z,22.50
2023-02-24T14:54:06.516Z,18.00
2023-02-24T14:59:15.042Z,17.00
2023-02-24T15:04:31.685Z,18.10
2023-02-24T15:07:01.933Z,18.70
2023-02-24T15:09:35.029Z,18.10
2023-02-24T15:12:13.693Z,12.00
2023-02-24T15:14:53.447Z,19.90
2023-02-24T15:17:22.028Z,21.30
2023-02-24T15:19:54.663Z,19.10
2023-02-24T15:22:30.765Z,13.60
2023-02-24T15:25:21.320Z,17.30
2023-02-24T15:28:03.396Z,16.00
2023-02-24T15:30:39.247Z,15.90
2023-02-24T15:33:15.149Z,12.30
2023-02-24T15:35:54.129Z,20.20
2023-02-24T15:38:35.208Z,15.80
2023-02-24T15:41:04.604Z,15.30
2023-02-24T15:43:52.856Z,18.10
2023-02-24T15:46:35.652Z,17.60
2023-02-24T15:49:04.753Z,15.10
2023-02-24T15:51:47.030Z,21.10
2023-02-24T15:54:29.722Z,18.90
2023-02-24T15:56:59.167Z,19.20
2023-02-24T15:59:27.499Z,34.10
2023-02-24T16:02:01.072Z,20.70
2023-02-24T16:04:29.626Z,22.80
2023-02-24T16:06:57.792Z,29.50
2023-02-24T16:09:37.735Z,35.00
2023-02-24T16:12:12.432Z,24.50
2023-02-24T16:14:44.725Z,24.60
2023-02-24T16:17:35.534Z,24.20
2023-02-24T16:20:09.321Z,18.00
2023-02-24T16:22:37.480Z,19.00
2023-02-24T16:25:07.038Z,19.80
2023-02-24T16:27:35.916Z,19.80
2023-02-24T16:30:04.927Z,22.20
2023-02-24T16:32:33.196Z,19.30
2023-02-24T16:35:01.628Z,16.10
2023-02-24T16:37:30.063Z,14.60
2023-02-24T16:39:59.312Z,17.00
2023-02-24T16:42:27.895Z,16.70
2023-02-24T16:44:56.143Z,17.00
2023-02-24T16:47:24.234Z,16.20
2023-02-24T16:49:56.257Z,17.10
2023-02-24T16:52:25.102Z,17.90
2023-02-24T16:54:53.340Z,15.60
2023-02-24T16:57:25.883Z,16.00
2023-02-24T16:59:54.883Z,18.00
2023-02-24T17:02:24.008Z,13.90
2023-02-24T17:04:52.749Z,15.50
2023-02-24T17:07:21.465Z,15.40
2023-02-24T17:09:50.975Z,16.00
2023-02-24T17:12:21.799Z,14.60
2023-02-24T17:14:51.794Z,14.00
2023-02-24T17:17:21.937Z,14.50
2023-02-24T17:19:51.747Z,16.80
2023-02-24T17:22:20.431Z,16.90
2023-02-24T17:24:48.469Z,15.20
2023-02-24T17:27:16.595Z,14.70
2023-02-24T17:29:44.878Z,16.00
2023-02-24T17:32:13.084Z,18.30
2023-02-24T17:34:42.532Z,18.50
2023-02-24T17:37:11.099Z,17.60
2023-02-24T17:39:39.037Z,16.20
2023-02-24T17:42:07.251Z,13.70
2023-02-24T17:44:35.338Z,15.10
2023-02-24T17:47:03.890Z,15.00
2023-02-24T17:49:32.611Z,12.30
2023-02-24T17:52:00.589Z,17.40
2023-02-24T17:54:28.876Z,17.40
2023-02-24T17:56:56.901Z,17.40
2023-02-24T17:59:25.019Z,18.60
2023-02-24T18:01:55.017Z,18.30
2023-02-24T18:04:23.368Z,16.40
2023-02-24T18:06:51.453Z,17.80
2023-02-24T18:09:20.119Z,16.80
2023-02-24T18:11:48.431Z,16.90
2023-02-24T18:14:20.819Z,15.50
2023-02-24T18:16:49.348Z,18.70
2023-02-24T18:19:17.934Z,16.20
2023-02-24T18:21:47.551Z,18.30
2023-02-24T18:24:15.645Z,18.90
2023-02-24T18:26:43.746Z,20.00
2023-02-24T18:29:14.098Z,19.40
2023-02-24T18:31:42.649Z,17.80
2023-02-24T18:34:10.995Z,17.90
2023-02-24T18:36:39.320Z,19.80
2023-02-24T18:39:09.079Z,21.20
2023-02-24T18:41:37.623Z,21.40
2023-02-24T18:44:05.741Z,18.40
2023-02-24T18:46:34.010Z,18.90
2023-02-24T18:49:03.699Z,19.00
2023-02-24T18:51:32.693Z,16.90
2023-02-24T18:54:01.353Z,19.50
2023-02-24T18:56:31.229Z,17.20
2023-02-24T18:59:04.802Z,21.80
2023-02-24T19:01:38.672Z,19.70
2023-02-24T19:04:08.273Z,18.40
2023-02-24T19:06:36.392Z,20.80
2023-02-24T19:09:10.536Z,19.60
2023-02-24T19:11:39.590Z,23.60
2023-02-24T19:14:10.985Z,20.60
2023-02-24T19:16:40.254Z,21.90
2023-02-24T19:19:14.459Z,21.60
2023-02-24T19:21:45.512Z,20.00
2023-02-24T19:24:16.738Z,19.60
2023-02-24T19:26:47.559Z,19.20
2023-02-24T19:29:17.309Z,21.00
2023-02-24T19:31:45.863Z,20.60
2023-02-24T19:34:15.251Z,21.60
2023-02-24T19:36:43.812Z,20.60
2023-02-24T19:39:14.694Z,22.50
2023-02-24T19:41:42.784Z,20.90
2023-02-24T19:44:11.357Z,20.80
2023-02-24T19:46:40.342Z,21.30
2023-02-24T19:49:08.831Z,21.10
2023-02-24T19:51:39.715Z,21.70
2023-02-24T19:54:07.955Z,22.10
2023-02-24T19:56:36.821Z,18.30
2023-02-24T19:59:08.075Z,19.90
2023-02-24T20:01:38.502Z,20.50
2023-02-24T20:04:07.189Z,19.30
2023-02-24T20:06:39.862Z,19.90
2023-02-24T20:09:09.601Z,17.10
2023-02-24T20:11:38.626Z,18.90
2023-02-24T20:14:08.679Z,18.00
2023-02-24T20:16:37.654Z,18.60
2023-02-24T20:19:12.512Z,19.40
2023-02-24T20:21:42.332Z,17.70
2023-02-24T20:24:13.881Z,19.20
2023-02-24T20:26:46.292Z,19.70
2023-02-24T20:29:15.561Z,16.80
2023-02-24T20:31:46.640Z,19.30
2023-02-24T20:34:16.786Z,18.30
2023-02-24T20:36:45.835Z,18.40
2023-02-24T20:39:15.355Z,19.10
2023-02-24T20:41:43.872Z,18.50
2023-02-24T20:44:15.444Z,18.80
2023-02-24T20:46:43.521Z,20.00
2023-02-24T20:49:14.779Z,16.10
2023-02-24T20:51:42.982Z,19.00
2023-02-24T20:54:11.819Z,19.50
2023-02-24T20:56:42.431Z,19.00
2023-02-24T20:59:18.984Z,12.60
2023-02-24T21:01:48.649Z,20.10
2023-02-24T21:04:18.661Z,16.90
2023-02-24T21:06:48.158Z,18.10
2023-02-24T21:09:18.658Z,18.80
2023-02-24T21:11:48.273Z,16.70
2023-02-24T21:14:16.824Z,19.00
2023-02-24T21:16:46.225Z,16.80
2023-02-24T21:19:17.831Z,21.00
2023-02-24T21:21:46.316Z,20.20
2023-02-24T21:24:16.174Z,19.20
2023-02-24T21:26:44.293Z,19.30
2023-02-24T21:29:12.360Z,19.70
2023-02-24T21:31:40.625Z,18.10
2023-02-24T21:34:12.081Z,16.20
2023-02-24T21:36:40.479Z,20.70
2023-02-24T21:39:09.353Z,16.70
2023-02-24T21:41:37.438Z,18.00
2023-02-24T21:44:05.440Z,17.90
2023-02-24T21:46:34.498Z,18.10
2023-02-24T21:49:03.087Z,16.70
2023-02-24T21:51:33.808Z,17.30
2023-02-24T21:56:31.405Z,19.30
2023-02-24T21:59:03.158Z,19.00
2023-02-24T22:01:36.367Z,16.60
2023-02-24T22:04:06.497Z,15.50
2023-02-24T22:06:36.730Z,18.30
2023-02-24T22:09:05.839Z,19.40
2023-02-24T22:11:38.010Z,15.90
2023-02-24T22:14:10.428Z,16.00
2023-02-24T22:16:39.843Z,17.70
2023-02-24T22:19:08.069Z,19.60
2023-02-24T22:21:36.090Z,16.40
2023-02-24T22:24:05.248Z,21.00
2023-02-24T22:26:33.557Z,19.00
2023-02-24T22:29:02.419Z,19.80
2023-02-24T22:31:32.315Z,18.90
2023-02-24T22:34:00.897Z,18.40
2023-02-24T22:36:31.066Z,18.60
2023-02-24T22:39:00.117Z,20.30
2023-02-24T22:41:32.495Z,22.30
2023-02-24T22:44:01.348Z,14.90
2023-02-24T22:46:32.429Z,16.50
2023-02-24T22:49:00.793Z,17.50
2023-02-24T22:51:29.259Z,22.10
2023-02-24T22:53:58.207Z,20.00
2023-02-24T22:56:27.398Z,20.10
2023-02-24T22:58:55.446Z,21.10
2023-02-24T23:01:35.092Z,20.70
2023-02-24T23:04:07.323Z,18.30
2023-02-24T23:06:37.268Z,21.10
2023-02-24T23:09:06.122Z,20.60
2023-02-24T23:11:38.675Z,22.80
2023-02-24T23:14:10.112Z,23.00
2023-02-24T23:16:38.888Z,19.00
2023-02-24T23:19:10.750Z,22.30
2023-02-24T23:21:40.683Z,23.70
2023-02-24T23:24:10.989Z,20.50
2023-02-24T23:26:45.965Z,17.10
2023-02-24T23:29:15.635Z,18.40
2023-02-24T23:31:45.005Z,22.30
2023-02-24T23:34:14.808Z,22.80
2023-02-24T23:36:44.463Z,24.30
2023-02-24T23:39:23.097Z,24.00
2023-02-24T23:41:56.820Z,22.40
2023-02-24T23:44:25.613Z,24.30
2023-02-24T23:46:54.389Z,24.30
2023-02-24T23:49:24.068Z,25.70
2023-02-24T23:51:53.475Z,24.50
2023-02-24T23:54:21.468Z,25.70
2023-02-24T23:56:50.026Z,23.90
2023-02-24T23:59:21.571Z,23.70
